sensor_id;sensor_type;location;lat;lon;timestamp;P1;durP1;ratioP1;P2;durP2;ratioP2
18146;SDS011;9199;48.832;9.182;2024-01-30T00:00:29;15.52;;;8.60;;
18146;SDS011;9199;48.832;9.182;2024-01-30T00:02:55;16.73;;;6.95;;
18146;SDS011;9199;48.832;9.182;2024-01-30T00:05:22;15.20;;;7.32;;
18146;SDS011;9199;48.832;9.182;2024-01-30T00:07:50;14.00;;;7.77;;
18146;SDS011;9199;48.832;9.182;2024-01-30T00:10:16;20.38;;;8.68;;
18146;SDS011;9199;48.832;9.182;2024-01-30T00:12:44;24.15;;;10.32;;
18146;SDS011;9199;48.832;9.182;2024-01-30T00:15:11;17.67;;;8.73;;
18146;SDS011;9199;48.832;9.182;2024-01-30T00:17:38;19.77;;;8.60;;
18146;SDS011;9199;48.832;9.182;2024-01-30T00:20:05;20.60;;;8.37;;
18146;SDS011;9199;48.832;9.182;2024-01-30T00:22:34;19.02;;;9.38;;
18146;SDS011;9199;48.832;9.182;2024-01-30T00:25:00;18.60;;;8.93;;
18146;SDS011;9199;48.832;9.182;2024-01-30T00:27:27;18.17;;;7.85;;
18146;SDS011;9199;48.832;9.182;2024-01-30T00:29:55;18.23;;;8.50;;
18146;SDS011;9199;48.832;9.182;2024-01-30T00:32:22;17.90;;;7.90;;
18146;SDS011;9199;48.832;9.182;2024-01-30T00:34:48;17.52;;;7.70;;
18146;SDS011;9199;48.832;9.182;2024-01-30T00:37:15;19.42;;;7.93;;
18146;SDS011;9199;48.832;9.182;2024-01-30T00:39:42;13.60;;;6.93;;
18146;SDS011;9199;48.832;9.182;2024-01-30T00:42:09;15.77;;;7.65;;
18146;SDS011;9199;48.832;9.182;2024-01-30T00:44:35;15.33;;;7.60;;
18146;SDS011;9199;48.832;9.182;2024-01-30T00:47:05;20.80;;;7.88;;
18146;SDS011;9199;48.832;9.182;2024-01-30T00:49:31;15.20;;;7.80;;
18146;SDS011;9199;48.832;9.182;2024-01-30T00:51:59;17.17;;;8.35;;
18146;SDS011;9199;48.832;9.182;2024-01-30T00:54:26;14.63;;;7.90;;
18146;SDS011;9199;48.832;9.182;2024-01-30T00:56:53;15.97;;;8.03;;
18146;SDS011;9199;48.832;9.182;2024-01-30T00:59:20;18.35;;;8.43;;
18146;SDS011;9199;48.832;9.182;2024-01-30T01:01:46;17.38;;;8.35;;
18146;SDS011;9199;48.832;9.182;2024-01-30T01:04:15;17.33;;;8.23;;
18146;SDS011;9199;48.832;9.182;2024-01-30T01:06:42;18.63;;;8.38;;
18146;SDS011;9199;48.832;9.182;2024-01-30T01:09:10;14.87;;;8.03;;
18146;SDS011;9199;48.832;9.182;2024-01-30T01:11:37;17.17;;;7.82;;
18146;SDS011;9199;48.832;9.182;2024-01-30T01:14:04;18.25;;;7.97;;
18146;SDS011;9199;48.832;9.182;2024-01-30T01:16:30;18.35;;;8.05;;
18146;SDS011;9199;48.832;9.182;2024-01-30T01:18:57;18.77;;;8.48;;
18146;SDS011;9199;48.832;9.182;2024-01-30T01:21:26;18.17;;;7.83;;
18146;SDS011;9199;48.832;9.182;2024-01-30T01:23:53;16.55;;;8.10;;
18146;SDS011;9199;48.832;9.182;2024-01-30T01:26:19;20.35;;;8.57;;
18146;SDS011;9199;48.832;9.182;2024-01-30T01:28:46;18.13;;;8.32;;
18146;SDS011;9199;48.832;9.182;2024-01-30T01:31:13;17.58;;;8.57;;
18146;SDS011;9199;48.832;9.182;2024-01-30T01:33:40;16.83;;;8.40;;
18146;SDS011;9199;48.832;9.182;2024-01-30T01:36:06;17.75;;;8.23;;
18146;SDS011;9199;48.832;9.182;2024-01-30T01:38:34;17.52;;;8.90;;
18146;SDS011;9199;48.832;9.182;2024-01-30T01:41:01;16.92;;;8.30;;
18146;SDS011;9199;48.832;9.182;2024-01-30T01:43:28;18.75;;;8.57;;
18146;SDS011;9199;48.832;9.182;2024-01-30T01:45:55;20.13;;;8.40;;
18146;SDS011;9199;48.832;9.182;2024-01-30T01:48:21;16.58;;;8.68;;
18146;SDS011;9199;48.832;9.182;2024-01-30T01:50:48;18.92;;;8.18;;
18146;SDS011;9199;48.832;9.182;2024-01-30T01:53:15;19.08;;;8.05;;
18146;SDS011;9199;48.832;9.182;2024-01-30T01:55:45;14.20;;;7.55;;
18146;SDS011;9199;48.832;9.182;2024-01-30T01:58:12;17.93;;;8.57;;
18146;SDS011;9199;48.832;9.182;2024-01-30T02:00:39;18.08;;;8.00;;
18146;SDS011;9199;48.832;9.182;2024-01-30T02:03:07;17.48;;;8.68;;
18146;SDS011;9199;48.832;9.182;2024-01-30T02:05:36;17.15;;;8.35;;
18146;SDS011;9199;48.832;9.182;2024-01-30T02:08:03;16.90;;;8.05;;
18146;SDS011;9199;48.832;9.182;2024-01-30T02:10:31;17.20;;;8.43;;
18146;SDS011;9199;48.832;9.182;2024-01-30T02:12:59;17.70;;;8.35;;
18146;SDS011;9199;48.832;9.182;2024-01-30T02:15:26;18.13;;;9.05;;
18146;SDS011;9199;48.832;9.182;2024-01-30T02:17:54;14.93;;;8.63;;
18146;SDS011;9199;48.832;9.182;2024-01-30T02:20:20;17.50;;;8.38;;
18146;SDS011;9199;48.832;9.182;2024-01-30T02:22:52;17.30;;;8.63;;
18146;SDS011;9199;48.832;9.182;2024-01-30T02:25:20;16.48;;;8.65;;
18146;SDS011;9199;48.832;9.182;2024-01-30T02:27:55;16.83;;;8.27;;
18146;SDS011;9199;48.832;9.182;2024-01-30T02:30:22;14.55;;;7.63;;
18146;SDS011;9199;48.832;9.182;2024-01-30T02:32:49;16.00;;;7.88;;
18146;SDS011;9199;48.832;9.182;2024-01-30T02:35:15;17.97;;;8.47;;
18146;SDS011;9199;48.832;9.182;2024-01-30T02:37:42;17.17;;;8.07;;
18146;SDS011;9199;48.832;9.182;2024-01-30T02:40:10;15.52;;;8.43;;
18146;SDS011;9199;48.832;9.182;2024-01-30T02:42:37;17.33;;;8.77;;
18146;SDS011;9199;48.832;9.182;2024-01-30T02:45:04;20.77;;;9.10;;
18146;SDS011;9199;48.832;9.182;2024-01-30T02:47:31;17.00;;;8.70;;
18146;SDS011;9199;48.832;9.182;2024-01-30T02:49:58;18.67;;;8.45;;
18146;SDS011;9199;48.832;9.182;2024-01-30T02:52:25;18.60;;;8.75;;
18146;SDS011;9199;48.832;9.182;2024-01-30T02:54:51;19.50;;;8.65;;
18146;SDS011;9199;48.832;9.182;2024-01-30T02:57:19;18.90;;;9.13;;
18146;SDS011;9199;48.832;9.182;2024-01-30T02:59:46;18.47;;;9.23;;
18146;SDS011;9199;48.832;9.182;2024-01-30T03:02:13;21.40;;;9.05;;
18146;SDS011;9199;48.832;9.182;2024-01-30T03:04:40;21.17;;;9.50;;
18146;SDS011;9199;48.832;9.182;2024-01-30T03:07:07;18.88;;;9.23;;
18146;SDS011;9199;48.832;9.182;2024-01-30T03:09:33;18.48;;;9.18;;
18146;SDS011;9199;48.832;9.182;2024-01-30T03:12:00;18.90;;;8.77;;
18146;SDS011;9199;48.832;9.182;2024-01-30T03:14:28;17.35;;;8.88;;
18146;SDS011;9199;48.832;9.182;2024-01-30T03:16:56;16.40;;;8.80;;
18146;SDS011;9199;48.832;9.182;2024-01-30T03:19:23;17.42;;;9.75;;
18146;SDS011;9199;48.832;9.182;2024-01-30T03:21:50;17.73;;;9.63;;
18146;SDS011;9199;48.832;9.182;2024-01-30T03:24:17;17.60;;;9.37;;
18146;SDS011;9199;48.832;9.182;2024-01-30T03:26:43;16.17;;;9.35;;
18146;SDS011;9199;48.832;9.182;2024-01-30T03:29:10;16.77;;;8.90;;
18146;SDS011;9199;48.832;9.182;2024-01-30T03:31:38;20.52;;;9.48;;
18146;SDS011;9199;48.832;9.182;2024-01-30T03:34:05;21.63;;;9.05;;
18146;SDS011;9199;48.832;9.182;2024-01-30T03:36:32;18.33;;;9.07;;
18146;SDS011;9199;48.832;9.182;2024-01-30T03:38:59;15.55;;;8.65;;
18146;SDS011;9199;48.832;9.182;2024-01-30T03:41:26;16.45;;;9.20;;
18146;SDS011;9199;48.832;9.182;2024-01-30T03:43:52;22.25;;;9.60;;
18146;SDS011;9199;48.832;9.182;2024-01-30T03:46:19;16.02;;;8.68;;
18146;SDS011;9199;48.832;9.182;2024-01-30T03:48:47;16.13;;;8.63;;
18146;SDS011;9199;48.832;9.182;2024-01-30T03:51:14;18.92;;;9.27;;
18146;SDS011;9199;48.832;9.182;2024-01-30T03:53:41;18.73;;;9.15;;
18146;SDS011;9199;48.832;9.182;2024-01-30T03:56:08;16.90;;;9.20;;
18146;SDS011;9199;48.832;9.182;2024-01-30T03:58:34;15.32;;;8.50;;
18146;SDS011;9199;48.832;9.182;2024-01-30T04:01:01;17.10;;;8.43;;
18146;SDS011;9199;48.832;9.182;2024-01-30T04:03:28;19.38;;;8.95;;
18146;SDS011;9199;48.832;9.182;2024-01-30T04:05:56;17.35;;;8.65;;
18146;SDS011;9199;48.832;9.182;2024-01-30T04:08:23;22.58;;;9.90;;
18146;SDS011;9199;48.832;9.182;2024-01-30T04:10:50;19.33;;;8.65;;
18146;SDS011;9199;48.832;9.182;2024-01-30T04:13:16;16.47;;;9.13;;
18146;SDS011;9199;48.832;9.182;2024-01-30T04:15:43;17.77;;;8.95;;
18146;SDS011;9199;48.832;9.182;2024-01-30T04:18:10;18.52;;;9.23;;
18146;SDS011;9199;48.832;9.182;2024-01-30T04:20:36;16.55;;;9.13;;
18146;SDS011;9199;48.832;9.182;2024-01-30T04:23:05;19.45;;;8.95;;
18146;SDS011;9199;48.832;9.182;2024-01-30T04:25:32;20.97;;;9.60;;
18146;SDS011;9199;48.832;9.182;2024-01-30T04:27:58;17.38;;;9.07;;
18146;SDS011;9199;48.832;9.182;2024-01-30T04:30:25;17.02;;;9.00;;
18146;SDS011;9199;48.832;9.182;2024-01-30T04:32:52;18.23;;;8.77;;
18146;SDS011;9199;48.832;9.182;2024-01-30T04:35:17;18.50;;;8.90;;
18146;SDS011;9199;48.832;9.182;2024-01-30T04:37:45;18.35;;;9.50;;
18146;SDS011;9199;48.832;9.182;2024-01-30T04:40:13;19.10;;;8.88;;
18146;SDS011;9199;48.832;9.182;2024-01-30T04:42:40;20.70;;;9.60;;
18146;SDS011;9199;48.832;9.182;2024-01-30T04:45:07;18.33;;;9.23;;
18146;SDS011;9199;48.832;9.182;2024-01-30T04:47:34;21.67;;;9.60;;
18146;SDS011;9199;48.832;9.182;2024-01-30T04:50:01;17.88;;;9.30;;
18146;SDS011;9199;48.832;9.182;2024-01-30T04:52:29;17.77;;;9.07;;
18146;SDS011;9199;48.832;9.182;2024-01-30T04:54:56;20.92;;;9.13;;
18146;SDS011;9199;48.832;9.182;2024-01-30T04:57:24;19.73;;;9.48;;
18146;SDS011;9199;48.832;9.182;2024-01-30T04:59:51;15.90;;;9.18;;
18146;SDS011;9199;48.832;9.182;2024-01-30T05:02:19;18.38;;;9.70;;
18146;SDS011;9199;48.832;9.182;2024-01-30T05:04:46;15.77;;;9.18;;
18146;SDS011;9199;48.832;9.182;2024-01-30T05:07:13;19.48;;;9.68;;
18146;SDS011;9199;48.832;9.182;2024-01-30T05:09:39;18.35;;;9.50;;
18146;SDS011;9199;48.832;9.182;2024-01-30T05:12:06;17.63;;;9.00;;
18146;SDS011;9199;48.832;9.182;2024-01-30T05:14:35;16.15;;;9.10;;
18146;SDS011;9199;48.832;9.182;2024-01-30T05:17:01;18.60;;;10.02;;
18146;SDS011;9199;48.832;9.182;2024-01-30T05:19:29;16.75;;;9.20;;
18146;SDS011;9199;48.832;9.182;2024-01-30T05:21:55;16.40;;;9.38;;
18146;SDS011;9199;48.832;9.182;2024-01-30T05:24:22;18.33;;;9.30;;
18146;SDS011;9199;48.832;9.182;2024-01-30T05:26:49;19.17;;;9.32;;
18146;SDS011;9199;48.832;9.182;2024-01-30T05:29:16;19.02;;;9.63;;
18146;SDS011;9199;48.832;9.182;2024-01-30T05:31:44;19.23;;;9.98;;
18146;SDS011;9199;48.832;9.182;2024-01-30T05:34:11;18.45;;;9.50;;
18146;SDS011;9199;48.832;9.182;2024-01-30T05:36:37;19.57;;;10.00;;
18146;SDS011;9199;48.832;9.182;2024-01-30T05:39:04;20.42;;;9.93;;
18146;SDS011;9199;48.832;9.182;2024-01-30T05:41:31;19.45;;;9.65;;
18146;SDS011;9199;48.832;9.182;2024-01-30T05:43:58;20.35;;;10.05;;
18146;SDS011;9199;48.832;9.182;2024-01-30T05:46:25;21.95;;;10.23;;
18146;SDS011;9199;48.832;9.182;2024-01-30T05:48:53;18.13;;;10.53;;
18146;SDS011;9199;48.832;9.182;2024-01-30T05:51:20;21.48;;;10.18;;
18146;SDS011;9199;48.832;9.182;2024-01-30T05:53:47;17.60;;;9.60;;
18146;SDS011;9199;48.832;9.182;2024-01-30T05:56:13;20.10;;;9.93;;
18146;SDS011;9199;48.832;9.182;2024-01-30T05:58:40;19.20;;;9.65;;
18146;SDS011;9199;48.832;9.182;2024-01-30T06:01:08;21.50;;;9.77;;
18146;SDS011;9199;48.832;9.182;2024-01-30T06:03:35;17.40;;;9.88;;
18146;SDS011;9199;48.832;9.182;2024-01-30T06:06:03;21.92;;;9.93;;
18146;SDS011;9199;48.832;9.182;2024-01-30T06:08:30;18.00;;;9.40;;
18146;SDS011;9199;48.832;9.182;2024-01-30T06:10:57;16.95;;;8.90;;
18146;SDS011;9199;48.832;9.182;2024-01-30T06:13:24;17.40;;;9.20;;
18146;SDS011;9199;48.832;9.182;2024-01-30T06:15:50;16.58;;;8.45;;
18146;SDS011;9199;48.832;9.182;2024-01-30T06:18:17;13.30;;;7.78;;
18146;SDS011;9199;48.832;9.182;2024-01-30T06:20:44;14.02;;;8.23;;
18146;SDS011;9199;48.832;9.182;2024-01-30T06:23:12;19.45;;;9.13;;
18146;SDS011;9199;48.832;9.182;2024-01-30T06:25:39;15.83;;;8.13;;
18146;SDS011;9199;48.832;9.182;2024-01-30T06:28:06;16.58;;;8.45;;
18146;SDS011;9199;48.832;9.182;2024-01-30T06:30:33;17.10;;;8.63;;
18146;SDS011;9199;48.832;9.182;2024-01-30T06:32:59;15.80;;;8.52;;
18146;SDS011;9199;48.832;9.182;2024-01-30T06:35:26;17.33;;;9.63;;
18146;SDS011;9199;48.832;9.182;2024-01-30T06:37:53;23.23;;;9.53;;
18146;SDS011;9199;48.832;9.182;2024-01-30T06:40:22;16.65;;;9.10;;
18146;SDS011;9199;48.832;9.182;2024-01-30T06:42:48;16.15;;;8.75;;
18146;SDS011;9199;48.832;9.182;2024-01-30T06:45:15;16.35;;;9.18;;
18146;SDS011;9199;48.832;9.182;2024-01-30T06:47:42;16.98;;;9.30;;
18146;SDS011;9199;48.832;9.182;2024-01-30T06:50:08;16.87;;;9.17;;
18146;SDS011;9199;48.832;9.182;2024-01-30T06:52:35;19.75;;;9.00;;
18146;SDS011;9199;48.832;9.182;2024-01-30T06:55:02;16.67;;;9.13;;
18146;SDS011;9199;48.832;9.182;2024-01-30T06:57:30;17.15;;;8.57;;
18146;SDS011;9199;48.832;9.182;2024-01-30T06:59:57;19.35;;;9.30;;
18146;SDS011;9199;48.832;9.182;2024-01-30T07:02:24;17.77;;;9.57;;
18146;SDS011;9199;48.832;9.182;2024-01-30T07:04:50;17.15;;;8.60;;
18146;SDS011;9199;48.832;9.182;2024-01-30T07:07:17;17.75;;;8.85;;
18146;SDS011;9199;48.832;9.182;2024-01-30T07:09:43;17.90;;;9.35;;
18146;SDS011;9199;48.832;9.182;2024-01-30T07:12:10;18.80;;;9.35;;
18146;SDS011;9199;48.832;9.182;2024-01-30T07:14:38;14.33;;;9.40;;
18146;SDS011;9199;48.832;9.182;2024-01-30T07:17:05;18.02;;;9.68;;
18146;SDS011;9199;48.832;9.182;2024-01-30T07:19:32;14.90;;;8.80;;
18146;SDS011;9199;48.832;9.182;2024-01-30T07:21:59;17.20;;;9.30;;
18146;SDS011;9199;48.832;9.182;2024-01-30T07:24:26;17.48;;;9.15;;
18146;SDS011;9199;48.832;9.182;2024-01-30T07:26:53;17.17;;;9.93;;
18146;SDS011;9199;48.832;9.182;2024-01-30T07:29:19;17.85;;;9.50;;
18146;SDS011;9199;48.832;9.182;2024-01-30T07:31:48;19.40;;;9.65;;
18146;SDS011;9199;48.832;9.182;2024-01-30T07:34:15;18.08;;;9.38;;
18146;SDS011;9199;48.832;9.182;2024-01-30T07:36:42;18.85;;;10.30;;
18146;SDS011;9199;48.832;9.182;2024-01-30T07:39:08;18.27;;;9.67;;
18146;SDS011;9199;48.832;9.182;2024-01-30T07:41:35;19.45;;;10.32;;
18146;SDS011;9199;48.832;9.182;2024-01-30T07:44:02;15.95;;;9.10;;
18146;SDS011;9199;48.832;9.182;2024-01-30T07:46:29;15.15;;;8.38;;
18146;SDS011;9199;48.832;9.182;2024-01-30T07:48:57;24.63;;;9.20;;
18146;SDS011;9199;48.832;9.182;2024-01-30T07:51:25;15.13;;;8.87;;
18146;SDS011;9199;48.832;9.182;2024-01-30T07:53:53;19.38;;;8.90;;
18146;SDS011;9199;48.832;9.182;2024-01-30T07:56:20;15.07;;;8.10;;
18146;SDS011;9199;48.832;9.182;2024-01-30T07:58:46;14.98;;;8.23;;
18146;SDS011;9199;48.832;9.182;2024-01-30T08:01:14;20.83;;;8.85;;
18146;SDS011;9199;48.832;9.182;2024-01-30T08:03:41;17.97;;;9.47;;
18146;SDS011;9199;48.832;9.182;2024-01-30T08:06:09;16.80;;;9.15;;
18146;SDS011;9199;48.832;9.182;2024-01-30T08:08:36;15.98;;;8.90;;
18146;SDS011;9199;48.832;9.182;2024-01-30T08:11:03;20.08;;;8.70;;
18146;SDS011;9199;48.832;9.182;2024-01-30T08:13:29;16.50;;;8.93;;
18146;SDS011;9199;48.832;9.182;2024-01-30T08:15:56;17.87;;;9.90;;
18146;SDS011;9199;48.832;9.182;2024-01-30T08:18:23;16.95;;;9.35;;
18146;SDS011;9199;48.832;9.182;2024-01-30T08:20:49;18.77;;;9.38;;
18146;SDS011;9199;48.832;9.182;2024-01-30T08:23:17;15.35;;;8.93;;
18146;SDS011;9199;48.832;9.182;2024-01-30T08:25:44;18.25;;;9.60;;
18146;SDS011;9199;48.832;9.182;2024-01-30T08:28:11;15.83;;;9.17;;
18146;SDS011;9199;48.832;9.182;2024-01-30T08:30:37;15.82;;;9.80;;
18146;SDS011;9199;48.832;9.182;2024-01-30T08:33:04;18.73;;;9.15;;
18146;SDS011;9199;48.832;9.182;2024-01-30T08:35:31;15.52;;;8.90;;
18146;SDS011;9199;48.832;9.182;2024-01-30T08:37:58;16.75;;;8.25;;
18146;SDS011;9199;48.832;9.182;2024-01-30T08:40:26;16.37;;;8.30;;
18146;SDS011;9199;48.832;9.182;2024-01-30T08:42:53;14.68;;;8.38;;
18146;SDS011;9199;48.832;9.182;2024-01-30T08:45:20;17.75;;;8.48;;
18146;SDS011;9199;48.832;9.182;2024-01-30T08:47:47;13.80;;;8.13;;
18146;SDS011;9199;48.832;9.182;2024-01-30T08:50:14;12.52;;;8.10;;
18146;SDS011;9199;48.832;9.182;2024-01-30T08:52:40;14.17;;;7.47;;
18146;SDS011;9199;48.832;9.182;2024-01-30T08:55:07;16.98;;;7.95;;
18146;SDS011;9199;48.832;9.182;2024-01-30T08:57:35;15.25;;;8.18;;
18146;SDS011;9199;48.832;9.182;2024-01-30T09:00:02;14.07;;;7.40;;
18146;SDS011;9199;48.832;9.182;2024-01-30T09:02:34;14.48;;;7.63;;
18146;SDS011;9199;48.832;9.182;2024-01-30T09:05:00;12.20;;;7.13;;
18146;SDS011;9199;48.832;9.182;2024-01-30T09:07:27;13.70;;;7.85;;
18146;SDS011;9199;48.832;9.182;2024-01-30T09:09:54;14.38;;;7.50;;
18146;SDS011;9199;48.832;9.182;2024-01-30T09:12:21;14.90;;;7.55;;
18146;SDS011;9199;48.832;9.182;2024-01-30T09:14:49;15.25;;;7.13;;
18146;SDS011;9199;48.832;9.182;2024-01-30T09:17:15;17.50;;;7.27;;
18146;SDS011;9199;48.832;9.182;2024-01-30T09:19:42;12.18;;;7.25;;
18146;SDS011;9199;48.832;9.182;2024-01-30T09:22:09;15.77;;;7.40;;
18146;SDS011;9199;48.832;9.182;2024-01-30T09:24:36;12.57;;;7.50;;
18146;SDS011;9199;48.832;9.182;2024-01-30T09:27:02;13.45;;;6.90;;
18146;SDS011;9199;48.832;9.182;2024-01-30T09:29:29;11.20;;;6.60;;
18146;SDS011;9199;48.832;9.182;2024-01-30T09:31:59;13.90;;;6.72;;
18146;SDS011;9199;48.832;9.182;2024-01-30T09:34:26;13.30;;;7.00;;
18146;SDS011;9199;48.832;9.182;2024-01-30T09:36:52;10.45;;;6.00;;
18146;SDS011;9199;48.832;9.182;2024-01-30T09:39:19;13.38;;;6.80;;
18146;SDS011;9199;48.832;9.182;2024-01-30T09:41:48;11.60;;;6.37;;
18146;SDS011;9199;48.832;9.182;2024-01-30T09:44:21;11.55;;;6.78;;
18146;SDS011;9199;48.832;9.182;2024-01-30T09:46:50;11.32;;;6.80;;
18146;SDS011;9199;48.832;9.182;2024-01-30T09:49:18;12.02;;;6.65;;
18146;SDS011;9199;48.832;9.182;2024-01-30T09:51:46;15.65;;;6.45;;
18146;SDS011;9199;48.832;9.182;2024-01-30T09:54:15;10.63;;;6.63;;
18146;SDS011;9199;48.832;9.182;2024-01-30T09:56:42;11.80;;;6.97;;
18146;SDS011;9199;48.832;9.182;2024-01-30T09:59:09;13.38;;;7.03;;
18146;SDS011;9199;48.832;9.182;2024-01-30T10:01:36;13.32;;;7.07;;
18146;SDS011;9199;48.832;9.182;2024-01-30T10:04:03;13.77;;;7.35;;
18146;SDS011;9199;48.832;9.182;2024-01-30T10:06:32;13.90;;;6.87;;
18146;SDS011;9199;48.832;9.182;2024-01-30T10:08:59;13.88;;;6.75;;
18146;SDS011;9199;48.832;9.182;2024-01-30T10:11:25;13.27;;;6.50;;
18146;SDS011;9199;48.832;9.182;2024-01-30T10:13:52;12.95;;;6.90;;
18146;SDS011;9199;48.832;9.182;2024-01-30T10:16:20;14.15;;;6.75;;
18146;SDS011;9199;48.832;9.182;2024-01-30T10:18:46;11.90;;;6.73;;
18146;SDS011;9199;48.832;9.182;2024-01-30T10:21:13;12.90;;;7.13;;
18146;SDS011;9199;48.832;9.182;2024-01-30T10:23:41;14.10;;;6.65;;
18146;SDS011;9199;48.832;9.182;2024-01-30T10:26:10;13.65;;;7.35;;
18146;SDS011;9199;48.832;9.182;2024-01-30T10:28:36;12.63;;;7.75;;
18146;SDS011;9199;48.832;9.182;2024-01-30T10:31:03;19.07;;;7.40;;
18146;SDS011;9199;48.832;9.182;2024-01-30T10:33:30;20.85;;;7.35;;
18146;SDS011;9199;48.832;9.182;2024-01-30T10:35:57;14.18;;;7.65;;
18146;SDS011;9199;48.832;9.182;2024-01-30T10:38:27;14.18;;;8.10;;
18146;SDS011;9199;48.832;9.182;2024-01-30T10:40:57;19.52;;;7.97;;
18146;SDS011;9199;48.832;9.182;2024-01-30T10:43:26;19.10;;;8.33;;
18146;SDS011;9199;48.832;9.182;2024-01-30T10:45:57;16.25;;;8.70;;
18146;SDS011;9199;48.832;9.182;2024-01-30T10:48:32;16.27;;;7.97;;
18146;SDS011;9199;48.832;9.182;2024-01-30T10:51:07;17.83;;;9.13;;
18146;SDS011;9199;48.832;9.182;2024-01-30T10:53:35;17.98;;;8.60;;
18146;SDS011;9199;48.832;9.182;2024-01-30T10:56:04;17.43;;;9.20;;
18146;SDS011;9199;48.832;9.182;2024-01-30T10:58:31;14.45;;;8.00;;
18146;SDS011;9199;48.832;9.182;2024-01-30T11:00:58;18.70;;;8.43;;
18146;SDS011;9199;48.832;9.182;2024-01-30T11:03:25;16.67;;;8.10;;
18146;SDS011;9199;48.832;9.182;2024-01-30T11:05:52;16.20;;;7.68;;
18146;SDS011;9199;48.832;9.182;2024-01-30T11:08:22;16.27;;;8.03;;
18146;SDS011;9199;48.832;9.182;2024-01-30T11:10:54;18.02;;;8.65;;
18146;SDS011;9199;48.832;9.182;2024-01-30T11:13:23;18.52;;;7.70;;
18146;SDS011;9199;48.832;9.182;2024-01-30T11:15:54;13.20;;;6.93;;
18146;SDS011;9199;48.832;9.182;2024-01-30T11:18:23;16.50;;;7.70;;
18146;SDS011;9199;48.832;9.182;2024-01-30T11:20:51;15.23;;;7.60;;
18146;SDS011;9199;48.832;9.182;2024-01-30T11:23:18;14.68;;;8.18;;
18146;SDS011;9199;48.832;9.182;2024-01-30T11:25:48;14.90;;;8.13;;
18146;SDS011;9199;48.832;9.182;2024-01-30T11:28:15;15.60;;;7.80;;
18146;SDS011;9199;48.832;9.182;2024-01-30T11:30:43;15.13;;;7.63;;
18146;SDS011;9199;48.832;9.182;2024-01-30T11:33:12;17.23;;;7.90;;
18146;SDS011;9199;48.832;9.182;2024-01-30T11:35:40;12.73;;;7.50;;
18146;SDS011;9199;48.832;9.182;2024-01-30T11:38:09;13.05;;;8.32;;
18146;SDS011;9199;48.832;9.182;2024-01-30T11:40:37;15.38;;;7.57;;
18146;SDS011;9199;48.832;9.182;2024-01-30T11:43:05;12.95;;;7.32;;
18146;SDS011;9199;48.832;9.182;2024-01-30T11:45:33;16.87;;;8.43;;
18146;SDS011;9199;48.832;9.182;2024-01-30T11:48:02;16.65;;;7.95;;
18146;SDS011;9199;48.832;9.182;2024-01-30T11:50:30;13.43;;;7.85;;
18146;SDS011;9199;48.832;9.182;2024-01-30T11:52:57;14.75;;;7.55;;
18146;SDS011;9199;48.832;9.182;2024-01-30T11:55:25;13.90;;;7.93;;
18146;SDS011;9199;48.832;9.182;2024-01-30T11:57:54;12.47;;;7.40;;
18146;SDS011;9199;48.832;9.182;2024-01-30T12:00:21;17.08;;;7.60;;
18146;SDS011;9199;48.832;9.182;2024-01-30T12:02:51;16.48;;;8.07;;
18146;SDS011;9199;48.832;9.182;2024-01-30T12:05:22;18.05;;;8.00;;
18146;SDS011;9199;48.832;9.182;2024-01-30T12:07:49;17.05;;;8.07;;
18146;SDS011;9199;48.832;9.182;2024-01-30T12:10:16;17.13;;;8.20;;
18146;SDS011;9199;48.832;9.182;2024-01-30T12:12:44;17.58;;;8.20;;
18146;SDS011;9199;48.832;9.182;2024-01-30T12:15:12;19.88;;;8.55;;
18146;SDS011;9199;48.832;9.182;2024-01-30T12:17:39;15.70;;;7.85;;
18146;SDS011;9199;48.832;9.182;2024-01-30T12:20:07;16.08;;;8.27;;
18146;SDS011;9199;48.832;9.182;2024-01-30T12:22:39;22.10;;;9.20;;
18146;SDS011;9199;48.832;9.182;2024-01-30T12:25:07;20.15;;;8.60;;
18146;SDS011;9199;48.832;9.182;2024-01-30T12:27:35;21.95;;;8.43;;
18146;SDS011;9199;48.832;9.182;2024-01-30T12:30:04;15.73;;;8.68;;
18146;SDS011;9199;48.832;9.182;2024-01-30T12:32:33;15.63;;;8.45;;
18146;SDS011;9199;48.832;9.182;2024-01-30T12:35:00;17.87;;;9.30;;
18146;SDS011;9199;48.832;9.182;2024-01-30T12:37:27;18.02;;;9.07;;
18146;SDS011;9199;48.832;9.182;2024-01-30T12:39:57;15.43;;;8.23;;
18146;SDS011;9199;48.832;9.182;2024-01-30T12:42:23;16.55;;;8.85;;
18146;SDS011;9199;48.832;9.182;2024-01-30T12:44:52;16.75;;;8.15;;
18146;SDS011;9199;48.832;9.182;2024-01-30T12:47:21;17.70;;;8.03;;
18146;SDS011;9199;48.832;9.182;2024-01-30T12:49:48;17.05;;;8.50;;
18146;SDS011;9199;48.832;9.182;2024-01-30T12:52:18;16.20;;;8.65;;
18146;SDS011;9199;48.832;9.182;2024-01-30T12:54:46;18.02;;;8.50;;
18146;SDS011;9199;48.832;9.182;2024-01-30T12:57:14;14.50;;;8.38;;
18146;SDS011;9199;48.832;9.182;2024-01-30T12:59:41;14.87;;;8.67;;
18146;SDS011;9199;48.832;9.182;2024-01-30T13:02:08;14.75;;;8.57;;
18146;SDS011;9199;48.832;9.182;2024-01-30T13:04:35;18.02;;;8.35;;
18146;SDS011;9199;48.832;9.182;2024-01-30T13:07:02;17.23;;;8.25;;
18146;SDS011;9199;48.832;9.182;2024-01-30T13:09:29;16.13;;;8.32;;
18146;SDS011;9199;48.832;9.182;2024-01-30T13:11:56;14.20;;;7.67;;
18146;SDS011;9199;48.832;9.182;2024-01-30T13:14:25;19.27;;;8.05;;
18146;SDS011;9199;48.832;9.182;2024-01-30T13:16:52;14.35;;;7.88;;
18146;SDS011;9199;48.832;9.182;2024-01-30T13:19:18;12.63;;;7.72;;
18146;SDS011;9199;48.832;9.182;2024-01-30T13:21:45;12.82;;;7.75;;
18146;SDS011;9199;48.832;9.182;2024-01-30T13:24:12;14.20;;;7.70;;
18146;SDS011;9199;48.832;9.182;2024-01-30T13:26:39;18.92;;;7.80;;
18146;SDS011;9199;48.832;9.182;2024-01-30T13:29:08;14.68;;;7.35;;
18146;SDS011;9199;48.832;9.182;2024-01-30T13:31:36;14.30;;;7.32;;
18146;SDS011;9199;48.832;9.182;2024-01-30T13:34:04;17.13;;;7.28;;
18146;SDS011;9199;48.832;9.182;2024-01-30T13:36:31;14.00;;;7.27;;
18146;SDS011;9199;48.832;9.182;2024-01-30T13:38:58;12.85;;;7.15;;
18146;SDS011;9199;48.832;9.182;2024-01-30T13:41:25;13.45;;;6.75;;
18146;SDS011;9199;48.832;9.182;2024-01-30T13:43:52;12.98;;;7.20;;
18146;SDS011;9199;48.832;9.182;2024-01-30T13:46:19;13.07;;;7.10;;
18146;SDS011;9199;48.832;9.182;2024-01-30T13:48:47;19.13;;;7.43;;
18146;SDS011;9199;48.832;9.182;2024-01-30T13:51:14;16.27;;;7.88;;
18146;SDS011;9199;48.832;9.182;2024-01-30T13:53:42;15.77;;;7.95;;
18146;SDS011;9199;48.832;9.182;2024-01-30T13:56:08;12.57;;;7.30;;
18146;SDS011;9199;48.832;9.182;2024-01-30T13:58:35;15.80;;;7.43;;
18146;SDS011;9199;48.832;9.182;2024-01-30T14:01:02;12.43;;;7.30;;
18146;SDS011;9199;48.832;9.182;2024-01-30T14:03:29;11.85;;;6.63;;
18146;SDS011;9199;48.832;9.182;2024-01-30T14:05:58;13.85;;;7.70;;
18146;SDS011;9199;48.832;9.182;2024-01-30T14:08:25;15.85;;;8.05;;
18146;SDS011;9199;48.832;9.182;2024-01-30T14:10:53;15.68;;;8.48;;
18146;SDS011;9199;48.832;9.182;2024-01-30T14:13:20;14.80;;;8.10;;
18146;SDS011;9199;48.832;9.182;2024-01-30T14:15:47;13.00;;;7.95;;
18146;SDS011;9199;48.832;9.182;2024-01-30T14:18:14;16.50;;;8.52;;
18146;SDS011;9199;48.832;9.182;2024-01-30T14:20:41;15.50;;;8.38;;
18146;SDS011;9199;48.832;9.182;2024-01-30T14:23:09;18.65;;;8.75;;
18146;SDS011;9199;48.832;9.182;2024-01-30T14:25:36;15.37;;;8.77;;
18146;SDS011;9199;48.832;9.182;2024-01-30T14:28:03;18.38;;;9.65;;
18146;SDS011;9199;48.832;9.182;2024-01-30T14:30:30;20.73;;;8.15;;
18146;SDS011;9199;48.832;9.182;2024-01-30T14:32:56;20.42;;;8.82;;
18146;SDS011;9199;48.832;9.182;2024-01-30T14:35:23;17.88;;;9.02;;
18146;SDS011;9199;48.832;9.182;2024-01-30T14:37:50;17.20;;;9.20;;
18146;SDS011;9199;48.832;9.182;2024-01-30T14:40:18;21.08;;;9.77;;
18146;SDS011;9199;48.832;9.182;2024-01-30T14:42:46;20.38;;;9.35;;
18146;SDS011;9199;48.832;9.182;2024-01-30T14:45:12;18.88;;;8.75;;
18146;SDS011;9199;48.832;9.182;2024-01-30T14:47:39;14.52;;;9.00;;